Terminal Aerodrome Forecast
Issued by NWS

Home | Current Version | Previous Version | Text Only | Print | Product List | Glossary On
Versions: 1 2 3 4 5 6 7 8 9 10 11 12 13 14 15 16 17 18
091
FTAK31 PAJN 231139
TAFAJN
TAF
PAJN 231139Z 2312/2412 08011KT P6SM -SHRA SCT005 OVC035
      TEMPO 2312/2316 3SM -SHRA BR SCT005 BKN015
     FM231600 10010KT 6SM -SHRA BR SCT015 BKN025 OVC040
     FM232100 09009KT P6SM VCSH SCT020 BKN025 OVC040
     FM240600 10010KT 6SM -RA BR SCT015 OVC025
     FM240900 10010KT 4SM -RA BR BKN015=

USA.gov is the U.S. government's official web portal to all federal, state and local government web resources and services.